Al Wakrah, Qatar
Current Conditions -  °F | °C
As of 5:00 AM on Sunday 26 Oct 2014 (Local Time) from OTBD Reporting Station
Clear Clear  
Wind Chill: 77°   Ceiling: Unl
Heat Index: 79°   Visibility: 6mi
Dew Point: 68°   Wind: 0mph
Humidity: 74%   Direction: NA
Pressure: 29.91"   Gusts: NA
Location:  25.18°N, 51.61°E
Report Text: OTBD 260200Z 00000KT CAVOK 25/20 Q1013 NOSIG
Loading
Personal Weather Stations






























Interactive Weather Map
Tropical Storm Tracking
New forecast layout! Learn more

10-Day Weather Forecast

Advertisements
Track Severe Weather on mobile